Time;durP1;ratioP1;P1;durP2;ratioP2;P2;SDS_P1;SDS_P2;PMS_P1;PMS_P2;Temp;Humidity;BMP_temperature;BMP_pressure;BME280_temperature;BME280_humidity;BME280_pressure;Samples;Min_cycle;Max_cycle;Signal;HPM_P1;HPM_P2
2023/10/30 00:01:18;;;;;;;8.13;1.23;;;;;;;14.02;68.14;98281.06;6333235;22;20042;-94
2023/10/30 00:03:44;;;;;;;11.77;1.25;;;;;;;13.98;67.59;98280.09;6303654;22;20266;-94
2023/10/30 00:06:10;;;;;;;5.28;1.52;;;;;;;13.97;67.76;98279.28;6331099;22;20021;-94
2023/10/30 00:08:35;;;;;;;4.05;1.20;;;;;;;13.84;68.04;98274.81;6331625;22;20387;-95
2023/10/30 00:11:00;;;;;;;3.60;0.80;;;;;;;13.86;68.19;98272.53;6331775;22;20003;-95
2023/10/30 00:13:25;;;;;;;2.97;0.90;;;;;;;14.03;67.38;98265.44;6330358;22;20006;-94
2023/10/30 00:15:51;;;;;;;4.53;1.30;;;;;;;13.93;67.81;98277.53;6331678;22;20017;-95
2023/10/30 00:18:16;;;;;;;8.33;1.67;;;;;;;13.92;67.82;98270.44;6332213;22;20394;-95
2023/10/30 00:20:41;;;;;;;10.68;1.27;;;;;;;13.93;68.02;98281.09;6332641;22;20219;-94
2023/10/30 00:23:07;;;;;;;9.43;1.30;;;;;;;13.87;68.37;98290.59;6332873;22;20003;-96
2023/10/30 00:25:32;;;;;;;9.02;1.70;;;;;;;13.82;67.75;98294.31;6333112;22;20188;-95
2023/10/30 00:28:00;;;;;;;8.70;1.38;;;;;;;13.95;67.86;98291.72;6333046;22;20242;-95
2023/10/30 00:30:26;;;;;;;4.00;1.10;;;;;;;14.04;67.35;98289.78;6332773;22;20018;-95
2023/10/30 00:32:51;;;;;;;7.45;1.70;;;;;;;14.05;67.76;98285.09;6332283;22;20066;-95
2023/10/30 00:35:17;;;;;;;5.10;1.20;;;;;;;14.07;67.65;98283.66;6333064;22;20023;-95
2023/10/30 00:37:43;;;;;;;5.38;1.00;;;;;;;14.09;67.63;98295.09;6305333;22;20338;-95
2023/10/30 00:40:09;;;;;;;8.07;1.20;;;;;;;14.04;67.70;98298.00;6332628;22;20078;-95
2023/10/30 00:42:35;;;;;;;3.50;1.00;;;;;;;14.00;68.28;98307.97;6332199;22;20006;-95
2023/10/30 00:45:00;;;;;;;10.43;1.52;;;;;;;14.18;67.48;98310.69;6332796;22;20015;-96
2023/10/30 00:47:25;;;;;;;5.90;1.13;;;;;;;14.22;67.40;98317.13;6332831;22;20007;-94
2023/10/30 00:49:51;;;;;;;6.55;0.98;;;;;;;14.06;67.82;98320.38;6305134;22;20007;-95
2023/10/30 00:52:16;;;;;;;4.30;1.30;;;;;;;14.01;68.26;98323.31;6332246;22;20082;-94
2023/10/30 00:54:41;;;;;;;7.13;1.40;;;;;;;13.99;68.04;98315.38;6332356;22;20378;-95
2023/10/30 00:57:07;;;;;;;6.18;1.83;;;;;;;13.99;68.48;98325.56;6333027;22;20007;-95
2023/10/30 00:59:32;;;;;;;5.85;0.95;;;;;;;13.91;68.14;98323.63;6332795;22;20007;-95
2023/10/30 01:01:57;;;;;;;8.15;1.33;;;;;;;14.02;67.81;98335.88;6332593;22;20383;-94
2023/10/30 01:04:23;;;;;;;3.78;0.88;;;;;;;14.05;68.42;98346.19;6332078;22;20057;-96
2023/10/30 01:06:48;;;;;;;4.43;1.00;;;;;;;14.09;68.16;98340.88;6332286;22;20037;-94
2023/10/30 01:09:14;;;;;;;4.37;1.27;;;;;;;13.95;68.29;98335.56;6332706;22;20233;-94
2023/10/30 01:11:39;;;;;;;6.68;1.65;;;;;;;14.09;68.28;98333.47;6332686;22;20216;-95
2023/10/30 01:14:04;;;;;;;7.73;1.07;;;;;;;14.06;68.35;98347.78;6331838;22;20009;-95
2023/10/30 01:16:30;;;;;;;5.18;0.90;;;;;;;14.12;68.06;98335.53;6332717;22;20719;-95
2023/10/30 01:18:55;;;;;;;11.80;1.17;;;;;;;14.04;68.35;98347.31;6308826;22;20029;-94
2023/10/30 01:21:20;;;;;;;2.90;1.07;;;;;;;14.10;68.32;98350.69;6311892;22;20038;-95
2023/10/30 01:23:46;;;;;;;9.90;1.60;;;;;;;14.26;68.36;98345.50;6334971;22;20239;-95
2023/10/30 01:26:11;;;;;;;13.93;2.72;;;;;;;14.28;68.39;98342.47;6332634;22;20010;-94
2023/10/30 01:28:36;;;;;;;4.97;1.08;;;;;;;14.27;68.66;98336.19;6333016;22;20014;-95
2023/10/30 01:31:04;;;;;;;8.75;2.03;;;;;;;14.26;68.61;98334.56;6332543;22;20080;-94
2023/10/30 01:33:30;;;;;;;12.15;1.90;;;;;;;14.22;68.62;98337.13;6331985;22;20011;-95
2023/10/30 01:35:55;;;;;;;11.32;1.23;;;;;;;14.20;69.16;98338.59;6332749;22;20009;-95
2023/10/30 01:38:20;;;;;;;5.38;1.55;;;;;;;14.07;69.79;98326.69;6332261;22;20404;-95
2023/10/30 01:40:50;;;;;;;5.32;1.05;;;;;;;13.94;69.67;98344.88;6332779;22;20081;-94
2023/10/30 01:43:16;;;;;;;9.35;1.58;;;;;;;13.93;69.51;98326.84;6332249;22;20344;-95
2023/10/30 01:45:41;;;;;;;6.60;1.17;;;;;;;13.98;69.98;98335.72;6333234;22;19999;-96
2023/10/30 01:48:06;;;;;;;9.77;1.58;;;;;;;14.16;69.59;98329.41;6332456;22;20013;-96
2023/10/30 01:50:32;;;;;;;10.95;1.48;;;;;;;14.30;69.15;98324.53;6332228;22;20018;-95
2023/10/30 01:52:58;;;;;;;7.25;1.55;;;;;;;14.24;69.44;98342.28;6332140;22;20192;-95
2023/10/30 01:55:24;;;;;;;5.85;1.38;;;;;;;14.12;69.59;98337.47;6304419;22;20006;-95
2023/10/30 01:57:51;;;;;;;7.72;1.30;;;;;;;14.23;69.12;98340.69;6304305;22;20668;-94
2023/10/30 02:00:16;;;;;;;7.07;1.42;;;;;;;14.10;69.79;98339.72;6331824;22;20007;-95
2023/10/30 02:02:42;;;;;;;7.47;2.35;;;;;;;14.20;69.45;98347.63;6331578;22;20014;-94
2023/10/30 02:05:09;;;;;;;9.15;1.10;;;;;;;14.23;69.31;98357.13;6332777;22;20085;-94
2023/10/30 02:07:35;;;;;;;6.47;1.55;;;;;;;14.19;69.26;98346.03;6331969;22;20336;-95
2023/10/30 02:10:03;;;;;;;4.97;1.33;;;;;;;14.07;69.78;98354.91;6304586;22;20433;-94
2023/10/30 02:12:28;;;;;;;10.20;2.80;;;;;;;14.34;69.17;98360.34;6331951;22;20006;-95
2023/10/30 02:14:55;;;;;;;6.75;1.30;;;;;;;14.28;69.04;98356.19;6331987;22;20456;-94
2023/10/30 02:17:20;;;;;;;10.27;2.63;;;;;;;14.17;69.13;98358.44;6332354;22;20036;-95
2023/10/30 02:19:45;;;;;;;11.60;2.13;;;;;;;14.03;69.83;98358.59;6332148;22;20112;-95
2023/10/30 02:22:11;;;;;;;10.75;1.65;;;;;;;14.06;69.91;98364.22;6332064;22;20037;-95
2023/10/30 02:24:36;;;;;;;7.43;1.48;;;;;;;14.30;69.30;98364.88;6332598;22;20007;-95
2023/10/30 02:27:02;;;;;;;8.45;1.23;;;;;;;14.06;69.66;98360.69;6303689;22;20061;-94
2023/10/30 02:29:27;;;;;;;5.68;1.30;;;;;;;14.28;69.23;98364.41;6331955;22;20003;-95
2023/10/30 02:31:54;;;;;;;4.20;0.98;;;;;;;14.34;68.99;98363.88;6331962;22;20034;-94
2023/10/30 02:34:19;;;;;;;5.50;1.38;;;;;;;14.22;68.56;98361.00;6331529;22;19999;-94
2023/10/30 02:36:44;;;;;;;3.65;0.90;;;;;;;14.09;69.79;98362.78;6331670;22;20429;-94
2023/10/30 02:39:09;;;;;;;10.38;1.67;;;;;;;14.28;68.89;98370.66;6332223;22;20006;-94
2023/10/30 02:41:35;;;;;;;9.95;1.95;;;;;;;14.15;69.04;98374.38;6331596;22;20010;-96
2023/10/30 02:44:00;;;;;;;5.35;0.95;;;;;;;13.94;69.68;98375.03;6331330;22;19999;-94
2023/10/30 02:46:26;;;;;;;14.43;1.48;;;;;;;13.97;69.42;98366.97;6332343;22;20081;-95
2023/10/30 02:48:51;;;;;;;10.93;1.90;;;;;;;14.26;69.03;98367.44;6331687;22;20007;-95
2023/10/30 02:51:17;;;;;;;3.92;0.95;;;;;;;14.10;69.47;98370.69;6332315;22;20095;-95
2023/10/30 02:53:43;;;;;;;4.47;0.93;;;;;;;14.21;69.57;98365.69;6331951;22;20003;-94
2023/10/30 02:56:09;;;;;;;9.98;1.83;;;;;;;14.03;69.42;98377.78;6332273;22;20026;-94
2023/10/30 02:58:34;;;;;;;9.80;1.98;;;;;;;14.20;69.09;98374.22;6331281;22;20007;-95
2023/10/30 03:01:00;;;;;;;5.57;1.23;;;;;;;14.20;69.32;98363.25;6332101;22;20015;-95
2023/10/30 03:03:26;;;;;;;6.45;1.40;;;;;;;14.20;69.52;98358.59;6331330;22;19999;-95
2023/10/30 03:05:51;;;;;;;6.30;1.33;;;;;;;14.28;69.13;98365.19;6332106;22;20007;-94
2023/10/30 03:08:17;;;;;;;2.85;0.93;;;;;;;14.14;69.12;98359.09;6332038;22;20040;-95
2023/10/30 03:10:42;;;;;;;7.78;2.08;;;;;;;14.24;68.94;98364.22;6331779;22;20094;-95
2023/10/30 03:13:07;;;;;;;12.27;1.45;;;;;;;14.07;69.16;98368.59;6333313;22;20176;-95
2023/10/30 03:15:32;;;;;;;9.45;1.58;;;;;;;14.13;69.18;98366.50;6333427;22;20007;-96
2023/10/30 03:17:58;;;;;;;9.82;1.70;;;;;;;13.99;69.83;98353.75;6334695;22;20035;-96
2023/10/30 03:20:23;;;;;;;8.83;1.97;;;;;;;14.22;68.53;98356.31;6333359;22;20459;-96
2023/10/30 03:22:48;;;;;;;7.93;1.10;;;;;;;14.17;68.69;98352.94;6333777;22;20311;-96
2023/10/30 03:25:14;;;;;;;9.82;1.20;;;;;;;14.34;68.76;98352.94;6333364;22;20018;-96
2023/10/30 03:27:39;;;;;;;6.80;1.35;;;;;;;14.19;69.26;98347.94;6333928;22;20025;-96
2023/10/30 03:30:06;;;;;;;20.05;2.53;;;;;;;14.21;69.32;98354.72;6333927;22;20088;-96
2023/10/30 03:32:32;;;;;;;7.13;1.35;;;;;;;14.08;69.63;98348.28;6334023;22;20452;-96
2023/10/30 03:34:58;;;;;;;3.83;0.98;;;;;;;14.19;69.09;98353.44;6334585;22;20007;-95
2023/10/30 03:37:24;;;;;;;8.55;1.45;;;;;;;14.16;69.43;98354.06;6334028;22;20429;-96
2023/10/30 03:39:49;;;;;;;12.60;1.70;;;;;;;14.14;69.41;98361.84;6334135;22;20011;-96
2023/10/30 03:42:15;;;;;;;5.50;1.67;;;;;;;14.09;69.64;98352.66;6305805;22;20007;-96
2023/10/30 03:44:40;;;;;;;8.77;2.20;;;;;;;14.20;69.94;98346.81;6307650;22;20007;-96
2023/10/30 03:47:06;;;;;;;9.32;2.78;;;;;;;14.27;69.45;98352.63;6311058;22;20018;-96
2023/10/30 03:49:31;;;;;;;6.25;1.92;;;;;;;14.28;69.24;98356.97;6338096;22;20014;-96
2023/10/30 03:51:56;;;;;;;9.82;1.70;;;;;;;14.28;69.05;98354.22;6334911;22;20476;-96
2023/10/30 03:54:22;;;;;;;6.43;1.67;;;;;;;14.32;69.00;98355.19;6333512;22;20007;-96
2023/10/30 03:56:48;;;;;;;4.68;1.13;;;;;;;14.30;69.37;98357.44;6333726;22;20097;-96
2023/10/30 03:59:15;;;;;;;10.23;1.10;;;;;;;14.23;69.38;98368.09;6333259;22;20492;-96
2023/10/30 04:01:40;;;;;;;4.53;1.15;;;;;;;14.14;69.97;98367.31;6333846;22;20045;-96
2023/10/30 04:04:06;;;;;;;5.93;0.80;;;;;;;14.23;69.34;98373.59;6305735;22;20003;-96
2023/10/30 04:06:32;;;;;;;7.13;1.85;;;;;;;14.27;69.33;98373.75;6306057;22;20011;-96
2023/10/30 04:08:58;;;;;;;9.02;1.63;;;;;;;14.09;69.98;98369.09;6333479;22;20632;-95
2023/10/30 04:11:23;;;;;;;7.63;2.00;;;;;;;14.14;70.03;98370.06;6333743;22;20010;-96
2023/10/30 04:13:48;;;;;;;3.95;1.45;;;;;;;14.15;69.58;98374.38;6332310;22;20111;-96
2023/10/30 04:16:20;;;;;;;6.10;1.10;;;;;;;14.04;70.11;98366.50;6333186;22;20010;-96
2023/10/30 04:18:46;;;;;;;7.57;1.15;;;;;;;14.15;69.39;98372.47;6333394;22;20026;-96
2023/10/30 04:21:11;;;;;;;5.20;1.38;;;;;;;14.15;69.80;98372.47;6305975;22;20079;-96
2023/10/30 04:23:38;;;;;;;6.07;1.35;;;;;;;14.21;69.40;98376.66;6332831;22;20003;-96
2023/10/30 04:26:03;;;;;;;5.22;1.17;;;;;;;14.14;69.61;98370.06;6305538;22;20355;-96
2023/10/30 04:28:28;;;;;;;10.48;1.20;;;;;;;14.02;69.55;98376.97;6332966;22;20018;-96
2023/10/30 04:30:53;;;;;;;5.10;1.52;;;;;;;14.07;69.70;98376.81;6333789;22;19999;-96
2023/10/30 04:33:19;;;;;;;4.35;1.30;;;;;;;14.15;69.73;98377.94;6305088;22;20019;-94
2023/10/30 04:35:44;;;;;;;4.28;1.35;;;;;;;14.10;69.90;98378.91;6332692;22;20010;-94
2023/10/30 04:38:09;;;;;;;4.50;1.00;;;;;;;14.01;70.31;98372.63;6332954;22;20200;-93
2023/10/30 04:40:35;;;;;;;4.72;1.05;;;;;;;14.01;70.16;98367.94;6305283;22;20015;-93
2023/10/30 04:43:01;;;;;;;8.98;1.42;;;;;;;13.98;70.05;98365.84;6305534;22;20018;-93
2023/10/30 04:45:27;;;;;;;6.10;1.17;;;;;;;14.10;70.05;98367.94;6332789;22;20025;-93
2023/10/30 04:47:52;;;;;;;7.22;1.63;;;;;;;14.14;69.69;98367.31;6333131;22;20081;-93
2023/10/30 04:50:17;;;;;;;7.40;1.75;;;;;;;14.12;69.81;98368.44;6332692;22;20010;-94
2023/10/30 04:52:43;;;;;;;7.90;1.88;;;;;;;14.14;69.51;98365.34;6332391;22;20017;-93
2023/10/30 04:55:08;;;;;;;3.20;0.90;;;;;;;14.18;69.69;98371.00;6305054;22;20009;-94
2023/10/30 04:57:33;;;;;;;5.55;1.17;;;;;;;14.18;69.37;98362.78;6332939;22;20003;-92
2023/10/30 04:59:59;;;;;;;11.38;2.03;;;;;;;14.09;69.22;98363.59;6305059;22;20053;-93
2023/10/30 05:02:24;;;;;;;7.70;1.67;;;;;;;14.17;69.63;98369.41;6332412;22;20347;-93
2023/10/30 05:04:50;;;;;;;11.85;2.78;;;;;;;14.08;69.41;98363.91;6332126;22;20011;-94
2023/10/30 05:07:15;;;;;;;8.85;1.58;;;;;;;14.08;69.60;98361.97;6333062;22;20028;-94
2023/10/30 05:09:41;;;;;;;11.65;1.40;;;;;;;14.15;69.23;98369.72;6332744;22;20007;-94
2023/10/30 05:12:06;;;;;;;14.10;2.08;;;;;;;14.08;69.32;98372.13;6333317;22;20018;-92
2023/10/30 05:14:32;;;;;;;8.18;2.00;;;;;;;13.97;69.61;98386.13;6332546;22;20007;-93
2023/10/30 05:16:57;;;;;;;6.30;1.40;;;;;;;14.08;69.68;98381.16;6332989;22;20029;-94
2023/10/30 05:19:22;;;;;;;9.35;1.30;;;;;;;13.96;69.99;98389.22;6332002;22;20387;-94
2023/10/30 05:21:48;;;;;;;6.63;1.97;;;;;;;13.93;69.89;98381.66;6305065;22;20003;-94
2023/10/30 05:24:13;;;;;;;12.07;1.98;;;;;;;14.04;69.84;98390.34;6331960;22;20231;-94
2023/10/30 05:26:38;;;;;;;3.58;1.00;;;;;;;14.01;69.78;98383.59;6332215;22;20033;-94
2023/10/30 05:29:04;;;;;;;4.22;1.58;;;;;;;14.10;69.53;98376.16;6333000;22;20025;-94
2023/10/30 05:31:29;;;;;;;5.35;0.85;;;;;;;14.07;69.51;98370.53;6333060;22;20021;-93
2023/10/30 05:33:55;;;;;;;9.88;3.00;;;;;;;13.93;70.01;98371.50;6332311;22;20020;-94
2023/10/30 05:36:20;;;;;;;9.52;2.85;;;;;;;13.73;70.39;98372.94;6305378;22;20489;-93
2023/10/30 05:38:46;;;;;;;9.20;2.00;;;;;;;14.01;70.01;98383.59;6332584;22;20045;-94
2023/10/30 05:41:11;;;;;;;11.07;1.40;;;;;;;14.01;69.95;98380.84;6332201;22;20340;-94
2023/10/30 05:43:36;;;;;;;5.53;1.38;;;;;;;13.80;70.40;98383.41;6332733;22;20204;-94
2023/10/30 05:46:02;;;;;;;7.97;0.95;;;;;;;13.82;70.40;98387.44;6332168;22;20451;-93
2023/10/30 05:48:27;;;;;;;6.80;1.52;;;;;;;13.99;69.86;98375.66;6332577;22;20011;-92
2023/10/30 05:50:52;;;;;;;10.95;1.88;;;;;;;13.75;70.74;98387.91;6332967;22;20018;-93
2023/10/30 05:53:18;;;;;;;11.10;2.20;;;;;;;13.88;70.42;98385.34;6331687;22;20014;-93
2023/10/30 05:55:43;;;;;;;6.47;1.50;;;;;;;13.74;70.62;98377.28;6332250;22;20026;-93
2023/10/30 05:58:09;;;;;;;6.13;1.67;;;;;;;13.72;70.43;98376.78;6332032;22;20344;-93
2023/10/30 06:00:34;;;;;;;7.03;1.75;;;;;;;13.81;70.46;98377.59;6332326;22;20003;-94
2023/10/30 06:03:00;;;;;;;6.25;2.10;;;;;;;13.89;70.43;98376.78;6331871;22;20049;-92
2023/10/30 06:05:26;;;;;;;7.05;1.45;;;;;;;13.85;70.55;98381.31;6303915;22;20255;-93
2023/10/30 06:07:52;;;;;;;8.23;2.00;;;;;;;13.93;70.02;98381.66;6332703;22;20018;-92
2023/10/30 06:10:19;;;;;;;15.57;2.25;;;;;;;13.84;70.25;98379.69;6333114;22;20016;-92
2023/10/30 06:12:47;;;;;;;7.70;1.42;;;;;;;13.87;69.90;98378.25;6339475;22;20010;-94
2023/10/30 06:15:13;;;;;;;3.50;1.15;;;;;;;13.96;70.23;98378.25;6338405;22;20007;-93
2023/10/30 06:17:38;;;;;;;13.85;1.98;;;;;;;13.73;70.57;98379.19;6334503;22;20010;-92
2023/10/30 06:20:05;;;;;;;12.90;4.07;;;;;;;13.76;70.60;98377.75;6333747;22;20007;-94
2023/10/30 06:22:31;;;;;;;16.33;1.55;;;;;;;13.84;70.64;98382.44;6331929;22;20014;-93
2023/10/30 06:24:58;;;;;;;8.38;1.50;;;;;;;13.81;70.70;98380.31;6332287;22;20010;-94
2023/10/30 06:27:24;;;;;;;18.38;2.38;;;;;;;13.71;70.82;98369.72;6304708;22;20028;-93
2023/10/30 06:29:49;;;;;;;9.50;2.03;;;;;;;13.83;70.53;98366.34;6332844;22;20015;-93
2023/10/30 06:32:14;;;;;;;9.98;2.15;;;;;;;13.66;71.25;98367.91;6305136;22;20007;-94
2023/10/30 06:34:42;;;;;;;10.30;2.42;;;;;;;13.80;70.67;98367.78;6304983;22;19999;-92
2023/10/30 06:37:07;;;;;;;9.73;2.00;;;;;;;13.63;71.39;98372.09;6304443;22;20098;-92
2023/10/30 06:39:32;;;;;;;10.20;1.42;;;;;;;13.62;72.01;98373.22;6332532;22;20065;-94
2023/10/30 06:41:58;;;;;;;9.63;2.63;;;;;;;13.64;71.81;98364.69;6332363;22;20006;-94
2023/10/30 06:44:24;;;;;;;15.13;2.00;;;;;;;13.72;71.52;98376.78;6331991;22;19995;-94
2023/10/30 06:46:50;;;;;;;12.65;2.63;;;;;;;13.56;72.21;98371.78;6305300;22;20127;-94
2023/10/30 06:49:16;;;;;;;8.65;1.80;;;;;;;13.45;72.25;98373.94;6334861;22;20003;-94
2023/10/30 06:51:42;;;;;;;6.88;2.08;;;;;;;13.62;72.19;98366.94;6306081;22;20083;-93
2023/10/30 06:54:11;;;;;;;11.65;2.35;;;;;;;13.46;73.01;98374.78;6334134;22;20070;-94
2023/10/30 06:56:36;;;;;;;5.95;1.35;;;;;;;13.50;73.21;98381.22;6333454;22;20129;-92
2023/10/30 06:59:02;;;;;;;5.45;1.42;;;;;;;13.54;72.94;98379.50;6332252;22;20030;-92
2023/10/30 07:01:33;;;;;;;10.02;2.00;;;;;;;13.64;72.47;98379.19;6333502;22;20011;-92
2023/10/30 07:03:58;;;;;;;5.93;2.45;;;;;;;13.69;72.09;98382.91;6333045;22;20378;-92
2023/10/30 07:06:24;;;;;;;6.72;1.33;;;;;;;13.70;71.86;98382.59;6333996;22;20030;-92
2023/10/30 07:08:49;;;;;;;6.35;1.95;;;;;;;13.58;72.42;98379.66;6333390;22;20003;-92
2023/10/30 07:11:15;;;;;;;8.52;1.73;;;;;;;13.43;72.95;98389.88;6305837;22;20030;-92
2023/10/30 07:13:40;;;;;;;7.00;1.35;;;;;;;13.59;72.78;98393.03;6333522;22;20007;-91
2023/10/30 07:16:07;;;;;;;5.93;2.35;;;;;;;13.42;72.57;98394.56;6333098;22;20021;-92
2023/10/30 07:18:33;;;;;;;6.03;1.88;;;;;;;13.52;72.59;98396.22;6333228;22;19999;-92
2023/10/30 07:20:58;;;;;;;17.50;2.22;;;;;;;13.62;72.90;98389.66;6332708;22;20043;-92
2023/10/30 07:23:23;;;;;;;9.70;2.08;;;;;;;13.55;72.62;98392.03;6332907;22;20033;-93
2023/10/30 07:25:49;;;;;;;13.23;2.88;;;;;;;13.71;72.71;98391.63;6306279;22;20273;-92
2023/10/30 07:28:16;;;;;;;15.65;2.78;;;;;;;13.87;72.18;98405.66;6333353;22;20026;-92
2023/10/30 07:30:41;;;;;;;11.30;2.45;;;;;;;13.87;72.14;98409.19;6305881;22;20091;-92
2023/10/30 07:33:07;;;;;;;7.22;1.50;;;;;;;13.60;72.71;98411.06;6333682;22;20090;-92
2023/10/30 07:35:32;;;;;;;4.38;1.70;;;;;;;13.86;72.24;98412.25;6305301;22;20006;-92
2023/10/30 07:37:57;;;;;;;9.77;2.03;;;;;;;13.73;72.69;98417.53;6333258;22;20021;-92
2023/10/30 07:40:25;;;;;;;4.60;1.73;;;;;;;13.74;72.92;98413.69;6305955;22;20021;-92
2023/10/30 07:42:53;;;;;;;6.57;1.50;;;;;;;13.72;72.75;98413.19;6332810;22;19999;-93
2023/10/30 07:45:18;;;;;;;6.97;1.75;;;;;;;13.56;73.88;98415.56;6332780;22;19999;-93
2023/10/30 07:47:43;;;;;;;12.88;1.70;;;;;;;13.81;73.00;98421.41;6305512;22;20007;-92
2023/10/30 07:50:09;;;;;;;9.63;1.73;;;;;;;13.97;72.47;98427.25;6333542;22;20029;-92
2023/10/30 07:52:35;;;;;;;5.38;1.85;;;;;;;13.79;73.29;98420.91;6332869;22;20094;-92
2023/10/30 07:55:01;;;;;;;5.85;1.42;;;;;;;14.05;72.17;98422.91;6332973;22;19999;-91
2023/10/30 07:57:27;;;;;;;13.38;2.17;;;;;;;13.95;72.37;98424.00;6333443;22;20010;-92
2023/10/30 07:59:52;;;;;;;6.72;2.28;;;;;;;13.95;72.40;98424.00;6333111;22;20007;-92
2023/10/30 08:02:18;;;;;;;6.80;1.65;;;;;;;14.01;72.17;98424.69;6332950;22;20011;-92
2023/10/30 08:04:43;;;;;;;10.48;2.28;;;;;;;14.04;72.41;98424.03;6332297;22;20433;-91
2023/10/30 08:07:08;;;;;;;5.80;1.60;;;;;;;14.16;71.73;98415.16;6333023;22;20623;-93
2023/10/30 08:09:33;;;;;;;12.70;2.30;;;;;;;14.28;72.03;98414.53;6331341;22;20018;-94
2023/10/30 08:11:59;;;;;;;10.73;2.75;;;;;;;14.43;71.49;98412.44;6333630;22;20018;-93
2023/10/30 08:14:24;;;;;;;8.70;2.03;;;;;;;14.41;71.60;98420.16;6305197;22;20010;-94
2023/10/30 08:16:49;;;;;;;10.15;2.70;;;;;;;14.52;71.36;98413.22;6304409;22;20010;-93
2023/10/30 08:19:15;;;;;;;5.03;1.60;;;;;;;14.46;71.04;98425.50;6333487;22;20034;-93
2023/10/30 08:21:40;;;;;;;6.00;2.25;;;;;;;14.52;71.15;98429.66;6331989;22;20453;-94
2023/10/30 08:24:06;;;;;;;6.72;1.48;;;;;;;14.55;71.39;98423.53;6333045;22;20003;-92
2023/10/30 08:26:32;;;;;;;8.23;2.50;;;;;;;14.61;71.30;98417.88;6333003;22;20015;-93
2023/10/30 08:28:57;;;;;;;6.35;2.15;;;;;;;14.71;70.83;98414.81;6332211;22;20018;-93
2023/10/30 08:31:23;;;;;;;9.48;2.45;;;;;;;14.68;71.32;98418.22;6333358;22;20402;-94
2023/10/30 08:33:48;;;;;;;9.00;2.65;;;;;;;14.59;71.32;98421.78;6305719;22;20051;-93
2023/10/30 08:36:23;;;;;;;6.47;2.72;;;;;;;14.64;70.56;98415.31;6305560;22;20017;-93
2023/10/30 08:38:48;;;;;;;6.55;2.00;;;;;;;14.82;70.69;98421.56;6308984;22;20042;-93
2023/10/30 08:41:17;;;;;;;8.02;1.70;;;;;;;14.90;70.74;98432.88;6337082;22;20014;-94
2023/10/30 08:43:44;;;;;;;10.15;2.08;;;;;;;14.97;70.39;98422.19;6336163;22;20002;-93
2023/10/30 08:46:09;;;;;;;9.65;3.45;;;;;;;14.72;70.67;98421.91;6334047;22;20033;-93
2023/10/30 08:48:34;;;;;;;4.88;1.70;;;;;;;15.00;70.87;98420.75;6333079;22;20022;-93
2023/10/30 08:51:03;;;;;;;6.65;1.40;;;;;;;15.06;70.24;98413.94;6332990;22;20082;-94
2023/10/30 08:53:29;;;;;;;6.07;2.88;;;;;;;14.87;70.30;98411.59;6333204;22;20017;-94
2023/10/30 08:55:54;;;;;;;4.60;1.40;;;;;;;15.15;70.20;98413.91;6333240;22;20007;-93
2023/10/30 08:58:20;;;;;;;6.93;2.00;;;;;;;14.95;69.89;98418.97;6332284;22;20013;-93
2023/10/30 09:00:45;;;;;;;5.25;1.65;;;;;;;15.19;69.39;98425.84;6333667;22;20010;-93
2023/10/30 09:03:11;;;;;;;3.10;1.73;;;;;;;15.28;69.32;98418.38;6333377;22;20086;-93
2023/10/30 09:05:37;;;;;;;6.63;2.03;;;;;;;15.21;69.42;98428.25;6332926;22;20002;-94
2023/10/30 09:08:02;;;;;;;3.90;1.63;;;;;;;15.24;68.98;98417.44;6333257;22;20007;-94
2023/10/30 09:10:32;;;;;;;3.80;1.70;;;;;;;15.27;69.29;98422.28;6333696;22;20087;-93
2023/10/30 09:12:58;;;;;;;3.47;1.58;;;;;;;15.32;68.97;98421.25;6332605;22;20010;-94
2023/10/30 09:15:23;;;;;;;6.75;1.38;;;;;;;15.59;68.56;98421.13;6333574;22;20006;-96
2023/10/30 09:17:48;;;;;;;3.13;1.17;;;;;;;15.37;68.09;98403.81;6333379;22;20412;-96
2023/10/30 09:20:14;;;;;;;5.55;2.25;;;;;;;15.44;67.94;98412.31;6333277;22;20010;-95
2023/10/30 09:22:39;;;;;;;3.10;1.45;;;;;;;15.44;68.11;98406.84;6333402;22;20007;-95
2023/10/30 09:25:06;;;;;;;5.03;1.60;;;;;;;15.51;67.84;98412.63;6333197;22;20009;-96
2023/10/30 09:27:31;;;;;;;4.20;0.88;;;;;;;15.72;67.52;98409.09;6332772;22;20019;-95
2023/10/30 09:29:57;;;;;;;3.50;1.30;;;;;;;15.68;67.04;98412.88;6333346;22;20007;-96
2023/10/30 09:32:23;;;;;;;7.28;1.40;;;;;;;15.67;66.58;98408.50;6332656;22;20007;-94
2023/10/30 09:34:48;;;;;;;3.55;1.35;;;;;;;15.79;66.54;98402.28;6333230;22;20006;-95
2023/10/30 09:37:13;;;;;;;3.38;1.67;;;;;;;15.86;66.33;98402.56;6332864;22;20397;-95
2023/10/30 09:39:39;;;;;;;3.20;0.75;;;;;;;15.96;66.23;98407.66;6332765;22;20010;-96
2023/10/30 09:42:07;;;;;;;6.20;1.70;;;;;;;15.81;66.50;98403.56;6332805;22;20084;-96
2023/10/30 09:44:33;;;;;;;6.82;1.30;;;;;;;16.07;66.39;98404.53;6333188;22;20236;-96
2023/10/30 09:47:00;;;;;;;8.95;1.20;;;;;;;16.05;66.06;98396.63;6333274;22;20428;-96
2023/10/30 09:49:28;;;;;;;4.32;1.15;;;;;;;15.98;65.80;98386.16;6332505;22;20007;-96
2023/10/30 09:51:55;;;;;;;1.92;0.80;;;;;;;16.07;64.64;98388.03;6305067;22;20006;-96
2023/10/30 09:54:21;;;;;;;2.40;0.90;;;;;;;16.15;64.77;98376.16;6305176;22;20021;-95
2023/10/30 09:56:48;;;;;;;3.83;1.02;;;;;;;16.15;64.49;98395.41;6332785;22;20064;-94
2023/10/30 09:59:16;;;;;;;4.78;0.98;;;;;;;16.00;64.17;98388.56;6332907;22;20026;-95
2023/10/30 10:01:41;;;;;;;2.28;0.80;;;;;;;16.08;64.11;98386.91;6331662;22;20002;-95
2023/10/30 10:04:07;;;;;;;2.67;1.02;;;;;;;16.21;64.37;98398.78;6332433;22;20003;-95
2023/10/30 10:06:32;;;;;;;1.58;0.65;;;;;;;16.09;64.15;98396.75;6332621;22;20014;-96
2023/10/30 10:08:57;;;;;;;3.28;1.65;;;;;;;15.98;64.16;98399.91;6304973;22;20432;-96
2023/10/30 10:11:22;;;;;;;2.80;0.90;;;;;;;16.16;63.69;98396.22;6332512;22;20033;-96
2023/10/30 10:13:49;;;;;;;4.00;1.00;;;;;;;16.26;63.30;98400.50;6332467;22;20010;-95
2023/10/30 10:16:15;;;;;;;3.30;0.52;;;;;;;16.10;63.43;98395.63;6332257;22;20021;-96
2023/10/30 10:18:40;;;;;;;2.70;0.80;;;;;;;16.23;63.60;98393.75;6333308;22;19999;-95
2023/10/30 10:21:11;;;;;;;5.68;1.50;;;;;;;16.24;63.53;98402.78;6332182;22;20074;-95
2023/10/30 10:23:38;;;;;;;2.03;0.90;;;;;;;16.19;63.39;98395.56;6304800;22;20010;-95
2023/10/30 10:26:06;;;;;;;2.75;0.95;;;;;;;16.42;63.87;98398.75;6335196;22;20034;-93
2023/10/30 10:28:33;;;;;;;14.82;2.42;;;;;;;16.38;63.41;98388.75;6338408;22;20042;-96
2023/10/30 10:30:58;;;;;;;2.75;0.90;;;;;;;16.59;63.42;98383.22;6332670;22;20006;-95
2023/10/30 10:33:29;;;;;;;4.30;0.82;;;;;;;16.76;62.70;98384.97;6332381;22;20071;-94
2023/10/30 10:36:00;;;;;;;4.30;0.85;;;;;;;16.99;62.50;98378.25;6332042;22;20010;-94
2023/10/30 10:38:26;;;;;;;2.28;1.20;;;;;;;16.83;62.42;98378.13;6331792;22;20359;-94
2023/10/30 10:40:52;;;;;;;3.53;1.63;;;;;;;16.99;62.45;98370.00;6332072;22;20040;-96
2023/10/30 10:43:19;;;;;;;4.15;1.02;;;;;;;17.03;62.03;98366.22;6332514;22;20011;-95
2023/10/30 10:45:48;;;;;;;2.28;0.90;;;;;;;17.20;61.91;98369.13;6332201;22;20093;-96
2023/10/30 10:48:14;;;;;;;2.13;0.70;;;;;;;17.27;61.78;98364.66;6332650;22;20030;-94
2023/10/30 10:50:41;;;;;;;3.08;1.35;;;;;;;17.25;61.80;98357.88;6332104;22;20018;-95
2023/10/30 10:53:07;;;;;;;2.35;0.93;;;;;;;17.13;61.85;98364.19;6305163;22;20381;-94
2023/10/30 10:55:44;;;;;;;1.08;0.70;;;;;;;17.29;61.49;98361.56;6305070;22;20034;-95
2023/10/30 10:58:56;;;;;;;3.10;1.08;;;;;;;17.07;61.29;98349.81;6332119;22;20022;-95
2023/10/30 11:01:23;;;;;;;2.35;0.75;;;;;;;16.94;61.84;98350.97;6175636;23;20423;-94
2023/10/30 11:03:48;;;;;;;3.00;0.68;;;;;;;16.94;61.56;98335.25;6292523;22;20064;-94
2023/10/30 11:06:15;;;;;;;4.32;1.13;;;;;;;17.00;61.89;98333.09;6337597;22;20364;-95
2023/10/30 11:08:43;;;;;;;1.77;0.63;;;;;;;17.22;61.65;98334.59;6333780;22;20011;-94
2023/10/30 11:11:23;;;;;;;4.35;1.20;;;;;;;17.22;61.67;98323.59;6332547;22;20107;-94
2023/10/30 11:14:11;;;;;;;1.92;0.75;;;;;;;17.21;61.20;98316.47;6332780;22;20049;-93
2023/10/30 11:17:02;;;;;;;2.92;1.08;;;;;;;17.40;61.05;98315.06;6332065;22;19999;-94
2023/10/30 11:19:28;;;;;;;2.10;0.63;;;;;;;17.53;61.20;98309.56;6332582;22;20309;-93
2023/10/30 11:21:54;;;;;;;3.70;0.70;;;;;;;17.35;61.34;98310.59;6331930;22;20080;-95
2023/10/30 11:24:39;;;;;;;6.47;0.60;;;;;;;17.39;61.04;98317.03;6331886;22;20003;-94
2023/10/30 11:27:26;;;;;;;1.60;0.30;;;;;;;17.38;60.85;98311.88;6331968;22;20324;-94